createdAt,value
2018-03-01T00:01:31.195Z,100979.03
2018-03-01T00:04:02.625Z,100982.03
2018-03-01T00:06:40.483Z,100983.41
2018-03-01T00:09:12.669Z,100983.08
2018-03-01T00:11:44.224Z,100989.47
2018-03-01T00:14:15.664Z,100984.59
2018-03-01T00:16:47.747Z,100973.80
2018-03-01T00:19:19.585Z,100985.87
2018-03-01T00:21:54.167Z,100975.55
2018-03-01T00:24:26.755Z,100978.27
2018-03-01T00:26:59.108Z,100972.72
2018-03-01T00:29:31.691Z,100977.98
2018-03-01T00:32:05.514Z,100967.62
2018-03-01T00:34:37.859Z,100964.73
2018-03-01T00:37:11.048Z,100959.19
2018-03-01T00:39:47.345Z,100959.75
2018-03-01T00:42:25.550Z,100950.55
2018-03-01T00:44:57.716Z,100942.56
2018-03-01T00:47:31.054Z,100942.00
2018-03-01T00:50:05.639Z,100936.29
2018-03-01T00:52:37.455Z,100934.80
2018-03-01T00:55:09.789Z,100925.89
2018-03-01T00:57:44.481Z,100921.67
2018-03-01T01:00:20.057Z,100926.74
2018-03-01T01:02:51.982Z,100923.17
2018-03-01T01:05:28.412Z,100930.02
2018-03-01T01:10:56.401Z,100930.58
2018-03-01T01:13:30.071Z,100942.41
2018-03-01T01:16:02.773Z,100930.17
2018-03-01T01:18:35.710Z,100935.45
2018-03-01T01:21:11.151Z,100932.35
2018-03-01T01:23:51.410Z,100936.68
2018-03-01T01:26:25.798Z,100939.30
2018-03-01T01:28:58.071Z,100932.11
2018-03-01T01:31:29.313Z,100925.50
2018-03-01T01:34:01.514Z,100925.84
2018-03-01T01:36:33.440Z,100914.96
2018-03-01T01:39:06.691Z,100917.16
2018-03-01T01:41:41.636Z,100904.89
2018-03-01T01:44:22.029Z,100891.98
2018-03-01T01:46:56.008Z,100886.36
2018-03-01T01:49:27.053Z,100886.56
2018-03-01T01:51:59.368Z,100870.88
2018-03-01T01:54:31.179Z,100852.17
2018-03-01T01:57:03.135Z,100872.08
2018-03-01T01:59:37.951Z,100870.59
2018-03-01T02:02:11.495Z,100861.23
2018-03-01T02:04:44.482Z,100861.55
2018-03-01T02:07:17.475Z,100854.13
2018-03-01T02:09:50.388Z,100854.94
2018-03-01T02:12:37.852Z,100844.50
2018-03-01T02:15:15.871Z,100832.94
2018-03-01T02:18:00.004Z,100836.06
2018-03-01T02:23:39.263Z,100838.52
2018-03-01T02:29:47.441Z,100815.00
2018-03-01T02:32:20.093Z,100804.09
2018-03-01T02:41:50.124Z,100782.50
2018-03-01T02:44:50.014Z,100768.70
2018-03-01T02:47:25.766Z,100757.81
2018-03-01T02:49:57.839Z,100758.16
2018-03-01T02:52:30.589Z,100746.59
2018-03-01T02:55:02.961Z,100747.41
2018-03-01T02:57:36.519Z,100750.53
2018-03-01T03:00:18.417Z,100736.80
2018-03-01T03:02:50.463Z,100747.02
2018-03-01T03:05:22.177Z,100741.64
2018-03-01T03:07:55.650Z,100733.10
2018-03-01T03:10:28.979Z,100730.01
2018-03-01T03:13:00.415Z,100728.53
2018-03-01T03:15:33.055Z,100732.28
2018-03-01T03:18:05.483Z,100727.51
2018-03-01T03:20:37.618Z,100728.79
2018-03-01T03:23:10.176Z,100724.36
2018-03-01T03:25:55.981Z,100728.04
2018-03-01T03:28:27.001Z,100716.06
2018-03-01T03:30:59.699Z,100710.80
2018-03-01T03:33:32.512Z,100708.05
2018-03-01T03:36:06.002Z,100705.22
2018-03-01T03:38:37.435Z,100706.94
2018-03-01T03:41:08.429Z,100707.42
2018-03-01T03:43:40.830Z,100706.74
2018-03-01T03:46:20.152Z,100691.35
2018-03-01T03:48:52.455Z,100697.86
2018-03-01T03:51:26.890Z,100692.13
2018-03-01T03:53:58.095Z,100690.18
2018-03-01T03:56:30.905Z,100693.55
2018-03-01T03:59:02.813Z,100695.23
2018-03-01T04:04:37.295Z,100690.66
2018-03-01T04:09:45.807Z,100686.50
2018-03-01T04:12:17.276Z,100685.73
2018-03-01T04:14:55.875Z,100681.44
2018-03-01T04:17:28.620Z,100682.30
2018-03-01T04:20:00.147Z,100683.52
2018-03-01T04:22:32.282Z,100672.36
2018-03-01T04:25:03.494Z,100675.38
2018-03-01T04:27:39.703Z,100669.30
2018-03-01T04:30:15.555Z,100682.95
2018-03-01T04:32:48.384Z,100671.45
2018-03-01T04:35:25.769Z,100675.61
2018-03-01T04:37:57.590Z,100664.02
2018-03-01T04:40:29.070Z,100666.02
2018-03-01T04:43:06.986Z,100672.22
2018-03-01T04:45:38.457Z,100676.48
2018-03-01T04:48:09.284Z,100673.95
2018-03-01T04:50:40.404Z,100660.52
2018-03-01T04:53:11.955Z,100639.59
2018-03-01T04:55:43.439Z,100635.55
2018-03-01T04:58:14.155Z,100642.89
2018-03-01T05:00:45.622Z,100627.66
2018-03-01T05:03:16.768Z,100621.77
2018-03-01T05:05:49.271Z,100618.41
2018-03-01T05:08:24.873Z,100631.44
2018-03-01T05:10:59.385Z,100641.84
2018-03-01T05:13:30.697Z,100645.72
2018-03-01T05:16:02.704Z,100657.05
2018-03-01T05:18:35.491Z,100652.61
2018-03-01T05:21:11.987Z,100661.29
2018-03-01T05:23:43.525Z,100655.25
2018-03-01T05:26:14.637Z,100655.53
2018-03-01T05:28:46.509Z,100663.86
2018-03-01T05:31:18.774Z,100667.08
2018-03-01T05:33:55.707Z,100671.39
2018-03-01T05:36:27.213Z,100671.37
2018-03-01T05:38:58.737Z,100669.02
2018-03-01T05:41:29.534Z,100656.14
2018-03-01T05:49:19.572Z,100647.45
2018-03-01T05:51:51.567Z,100635.10
2018-03-01T05:54:24.529Z,100630.05
2018-03-01T05:56:57.437Z,100631.65
2018-03-01T05:59:28.768Z,100621.77
2018-03-01T06:02:00.580Z,100624.54
2018-03-01T06:04:31.928Z,100616.04
2018-03-01T06:07:13.863Z,100623.66
2018-03-01T06:09:46.019Z,100627.77
2018-03-01T06:12:17.885Z,100627.06
2018-03-01T06:14:50.104Z,100629.36
2018-03-01T06:17:23.034Z,100629.78
2018-03-01T06:20:05.349Z,100621.77
2018-03-01T06:22:38.078Z,100624.89
2018-03-01T06:25:09.623Z,100627.77
2018-03-01T06:28:21.769Z,100618.06
2018-03-01T06:31:19.256Z,100605.59
2018-03-01T06:33:53.502Z,100625.86
2018-03-01T06:36:26.006Z,100621.58
2018-03-01T06:38:59.304Z,100614.02
2018-03-01T06:41:31.641Z,100621.83
2018-03-01T06:44:19.106Z,100623.39
2018-03-01T06:47:00.047Z,100606.84
2018-03-01T06:49:34.572Z,100618.89
2018-03-01T06:52:08.627Z,100614.70
2018-03-01T06:54:49.024Z,100612.98
2018-03-01T06:57:25.521Z,100617.80
2018-03-01T07:00:18.252Z,100599.47
2018-03-01T07:02:56.966Z,100614.40
2018-03-01T07:05:30.168Z,100607.50
2018-03-01T07:08:01.730Z,100607.29
2018-03-01T07:10:34.108Z,100598.38
2018-03-01T07:13:06.857Z,100594.50
2018-03-01T07:15:40.228Z,100596.87
2018-03-01T07:18:14.920Z,100593.36
2018-03-01T07:23:25.464Z,100566.43
2018-03-01T07:25:57.150Z,100586.45
2018-03-01T07:31:30.995Z,100587.04
2018-03-01T07:34:18.867Z,100570.42
2018-03-01T07:37:11.216Z,100572.07
2018-03-01T07:39:46.410Z,100573.03
2018-03-01T07:42:17.784Z,100578.16
2018-03-01T07:44:48.703Z,100551.00
2018-03-01T07:47:25.717Z,100551.02
2018-03-01T07:52:37.581Z,100547.31
2018-03-01T07:55:10.252Z,100556.33
2018-03-01T07:57:45.062Z,100550.84
2018-03-01T08:00:25.031Z,100549.88
2018-03-01T08:03:02.979Z,100550.36
2018-03-01T08:05:37.664Z,100539.95
2018-03-01T08:08:14.700Z,100540.52
2018-03-01T08:10:48.964Z,100547.49
2018-03-01T08:13:31.313Z,100538.06
2018-03-01T08:16:17.164Z,100526.23
2018-03-01T08:18:52.736Z,100522.94
2018-03-01T08:21:28.084Z,100520.14
2018-03-01T08:29:12.624Z,100514.09
2018-03-01T08:31:55.667Z,100511.14
2018-03-01T08:34:32.311Z,100517.41
2018-03-01T08:37:06.692Z,100490.63
2018-03-01T08:39:42.934Z,100503.27
2018-03-01T08:42:15.439Z,100497.08
2018-03-01T08:44:48.254Z,100492.88
2018-03-01T08:47:21.985Z,100468.22
2018-03-01T08:50:15.300Z,100468.69
2018-03-01T08:52:51.428Z,100466.42
2018-03-01T08:55:32.434Z,100464.42
2018-03-01T08:58:25.806Z,100453.74
2018-03-01T09:01:07.618Z,100449.27
2018-03-01T09:03:47.061Z,100436.08
2018-03-01T09:06:34.417Z,100424.60
2018-03-01T09:09:31.772Z,100422.83
2018-03-01T09:12:12.501Z,100410.37
2018-03-01T09:14:47.953Z,100412.08
2018-03-01T09:17:39.150Z,100412.74
2018-03-01T09:20:23.998Z,100398.02
2018-03-01T09:22:57.155Z,100388.08
2018-03-01T09:25:31.022Z,100407.00
2018-03-01T09:28:26.438Z,100406.33
2018-03-01T09:31:02.759Z,100408.42
2018-03-01T09:33:38.318Z,100389.22
2018-03-01T09:36:11.720Z,100415.01
2018-03-01T09:38:44.410Z,100394.34
2018-03-01T09:41:18.601Z,100393.14
2018-03-01T09:44:01.595Z,100388.91
2018-03-01T09:46:39.402Z,100377.66
2018-03-01T09:49:12.338Z,100370.62
2018-03-01T09:51:46.706Z,100374.81
2018-03-01T09:54:22.528Z,100375.95
2018-03-01T09:56:55.569Z,100370.52
2018-03-01T09:59:28.833Z,100370.40
2018-03-01T10:04:51.400Z,100373.08
2018-03-01T10:07:27.992Z,100367.70
2018-03-01T10:10:13.101Z,100361.96
2018-03-01T10:12:48.468Z,100360.05
2018-03-01T10:15:33.357Z,100355.20
2018-03-01T10:18:10.418Z,100358.34
2018-03-01T10:20:45.784Z,100367.42
2018-03-01T10:23:20.178Z,100370.83
2018-03-01T10:25:52.059Z,100353.09
2018-03-01T10:28:27.055Z,100347.42
2018-03-01T10:31:12.381Z,100346.67
2018-03-01T10:36:42.360Z,100335.46
2018-03-01T10:39:16.248Z,100323.94
2018-03-01T10:41:48.708Z,100321.73
2018-03-01T10:44:20.427Z,100317.81
2018-03-01T10:46:55.332Z,100319.70
2018-03-01T10:49:28.326Z,100309.91
2018-03-01T10:52:20.961Z,100320.31
2018-03-01T10:55:08.488Z,100309.53
2018-03-01T10:57:43.523Z,100319.28
2018-03-01T11:00:25.081Z,100304.77
2018-03-01T11:03:12.540Z,100301.47
2018-03-01T11:05:44.478Z,100272.94
2018-03-01T11:08:15.492Z,100286.55
2018-03-01T11:10:47.996Z,100279.75
2018-03-01T11:13:26.753Z,100267.86
2018-03-01T11:16:00.178Z,100264.59
2018-03-01T11:18:33.683Z,100265.27
2018-03-01T11:21:26.657Z,100256.08
2018-03-01T11:23:57.750Z,100239.55
2018-03-01T11:26:29.558Z,100231.52
2018-03-01T11:29:05.461Z,100211.15
2018-03-01T11:31:47.607Z,100191.45
2018-03-01T11:34:26.039Z,100155.52
2018-03-01T11:39:44.334Z,100206.30
2018-03-01T11:42:16.776Z,100195.67
2018-03-01T11:44:48.142Z,100195.46
2018-03-01T11:47:21.990Z,100177.69
2018-03-01T11:49:54.186Z,100194.75
2018-03-01T11:52:25.766Z,100188.64
2018-03-01T11:55:00.946Z,100183.81
2018-03-01T11:57:32.221Z,100176.39
2018-03-01T12:00:09.484Z,100183.49
2018-03-01T12:05:25.903Z,100172.44
2018-03-01T12:07:59.177Z,100165.90
2018-03-01T12:10:30.844Z,100156.22
2018-03-01T12:13:07.416Z,100152.04
2018-03-01T12:15:40.493Z,100154.70
2018-03-01T12:18:13.293Z,100147.32
2018-03-01T12:20:44.592Z,100147.38
2018-03-01T12:23:24.635Z,100053.51
2018-03-01T12:25:58.198Z,100144.70
2018-03-01T12:28:29.389Z,100152.77
2018-03-01T12:31:01.239Z,100142.98
2018-03-01T12:33:32.336Z,100145.48
2018-03-01T12:38:44.239Z,100146.77
2018-03-01T12:41:21.264Z,100139.02
2018-03-01T12:43:52.792Z,100139.97
2018-03-01T12:46:23.935Z,100133.49
2018-03-01T12:49:02.425Z,100133.36
2018-03-01T12:51:35.250Z,100131.70
2018-03-01T12:54:08.660Z,100127.20
2018-03-01T12:56:41.949Z,100114.63
2018-03-01T12:59:14.273Z,100064.09
2018-03-01T13:01:47.072Z,100114.52
2018-03-01T13:04:20.491Z,100105.59
2018-03-01T13:06:52.466Z,100110.16
2018-03-01T13:09:23.905Z,100097.19
2018-03-01T13:11:54.890Z,100087.58
2018-03-01T13:14:26.022Z,100091.74
2018-03-01T13:16:57.355Z,100087.72
2018-03-01T13:19:28.458Z,100078.45
2018-03-01T13:22:06.204Z,100075.34
2018-03-01T13:24:38.054Z,100070.78
2018-03-01T13:27:11.247Z,100077.28
2018-03-01T13:29:43.301Z,100074.23
2018-03-01T13:32:15.599Z,100073.87
2018-03-01T13:37:30.718Z,100062.27
2018-03-01T13:40:04.085Z,100058.36
2018-03-01T13:42:39.768Z,100049.49
2018-03-01T13:45:22.187Z,100016.82
2018-03-01T13:48:00.121Z,100031.42
2018-03-01T13:50:32.823Z,100045.31
2018-03-01T13:53:07.450Z,100033.00
2018-03-01T13:55:44.228Z,100020.20
2018-03-01T13:58:16.039Z,100024.57
2018-03-01T14:00:47.492Z,100012.30
2018-03-01T14:03:19.798Z,100008.78
2018-03-01T14:05:51.613Z,99996.19
2018-03-01T14:08:23.364Z,99988.76
2018-03-01T14:10:54.945Z,100004.99
2018-03-01T14:13:29.405Z,99997.81
2018-03-01T14:16:00.955Z,100010.34
2018-03-01T14:18:34.243Z,100005.16
2018-03-01T14:21:08.158Z,99999.70
2018-03-01T14:23:39.790Z,100002.39
2018-03-01T14:26:11.298Z,100010.48
2018-03-01T14:28:42.570Z,99994.22
2018-03-01T14:31:14.216Z,99992.30
2018-03-01T14:33:46.702Z,99981.83
2018-03-01T14:36:20.231Z,99990.91
2018-03-01T14:38:51.572Z,99977.87
2018-03-01T14:41:30.940Z,99981.60
2018-03-01T14:44:04.452Z,99979.81
2018-03-01T14:46:36.723Z,99967.08
2018-03-01T14:49:07.754Z,99967.58
2018-03-01T14:51:38.555Z,99961.20
2018-03-01T14:54:10.996Z,99964.50
2018-03-01T14:57:01.932Z,99952.66
2018-03-01T14:59:50.665Z,99948.89
2018-03-01T15:02:46.390Z,99949.81
2018-03-01T15:07:59.436Z,99955.09
2018-03-01T15:10:30.655Z,99935.91
2018-03-01T15:13:03.472Z,99947.16
2018-03-01T15:15:43.395Z,99931.88
2018-03-01T15:18:14.579Z,99937.86
2018-03-01T15:20:47.070Z,99937.27
2018-03-01T15:23:17.869Z,99921.84
2018-03-01T15:25:49.025Z,99932.08
2018-03-01T15:28:20.236Z,99921.34
2018-03-01T15:30:51.298Z,99933.55
2018-03-01T15:33:22.217Z,99912.04
2018-03-01T15:36:22.987Z,99909.05
2018-03-01T15:38:55.889Z,99910.58
2018-03-01T15:41:39.222Z,99911.39
2018-03-01T15:44:11.878Z,99907.76
2018-03-01T15:46:43.804Z,99912.47
2018-03-01T15:49:14.813Z,99894.67
2018-03-01T15:51:46.682Z,99910.00
2018-03-01T15:54:18.199Z,99903.20
2018-03-01T15:56:49.675Z,99905.28
2018-03-01T15:59:21.055Z,99899.28
2018-03-01T16:01:56.957Z,99885.08
2018-03-01T16:04:40.055Z,99904.12
2018-03-01T16:07:12.178Z,99908.72
2018-03-01T16:09:43.620Z,99904.60
2018-03-01T16:12:14.401Z,99907.98
2018-03-01T16:14:46.042Z,99919.88
2018-03-01T16:17:17.397Z,99905.97
2018-03-01T16:19:48.643Z,99914.75
2018-03-01T16:22:20.397Z,99922.78
2018-03-01T16:27:51.478Z,99911.23
2018-03-01T16:30:23.931Z,99900.40
2018-03-01T16:32:54.825Z,99919.69
2018-03-01T16:40:57.981Z,99929.88
2018-03-01T16:43:28.612Z,99921.60
2018-03-01T16:46:00.623Z,99918.64
2018-03-01T16:48:44.582Z,99926.34
2018-03-01T16:51:18.211Z,99935.10
2018-03-01T16:53:49.008Z,99933.74
2018-03-01T16:56:20.454Z,99933.58
2018-03-01T16:58:52.054Z,99938.63
2018-03-01T17:01:33.826Z,99939.91
2018-03-01T17:04:16.211Z,99940.91
2018-03-01T17:06:47.367Z,99914.64
2018-03-01T17:09:19.990Z,99953.80
2018-03-01T17:12:05.795Z,99936.03
2018-03-01T17:14:38.048Z,99952.33
2018-03-01T17:17:09.316Z,99953.83
2018-03-01T17:19:51.175Z,99952.94
2018-03-01T17:22:22.546Z,99957.98
2018-03-01T17:24:53.858Z,99952.12
2018-03-01T17:27:26.066Z,99954.04
2018-03-01T17:30:04.384Z,99949.13
2018-03-01T17:32:47.237Z,99961.91
2018-03-01T17:35:18.521Z,99948.65
2018-03-01T17:37:49.906Z,99939.13
2018-03-01T17:40:21.072Z,99939.09
2018-03-01T17:42:52.392Z,99944.69
2018-03-01T17:45:24.687Z,99938.90
2018-03-01T17:47:56.712Z,99928.95
2018-03-01T17:50:27.608Z,99932.52
2018-03-01T17:52:59.550Z,99946.70
2018-03-01T17:58:08.262Z,99941.05
2018-03-01T18:00:51.612Z,99941.63
2018-03-01T18:03:43.399Z,99959.95
2018-03-01T18:06:14.915Z,99938.97
2018-03-01T18:08:45.741Z,99945.03
2018-03-01T18:11:16.829Z,99926.20
2018-03-01T18:13:47.515Z,99931.74
2018-03-01T18:16:18.506Z,99947.56
2018-03-01T18:18:49.584Z,99941.09
2018-03-01T18:21:52.696Z,99944.69
2018-03-01T18:24:23.929Z,99940.55
2018-03-01T18:26:55.571Z,99939.50
2018-03-01T18:29:27.116Z,99941.98
2018-03-01T18:32:02.046Z,99914.21
2018-03-01T18:34:35.911Z,99934.85
2018-03-01T18:37:09.967Z,99931.39
2018-03-01T18:39:44.181Z,99935.09
2018-03-01T18:42:24.605Z,99925.55
2018-03-01T18:44:57.525Z,99925.17
2018-03-01T18:47:30.618Z,99928.16
2018-03-01T18:50:09.597Z,99917.30
2018-03-01T18:55:35.670Z,99920.98
2018-03-01T18:58:18.248Z,99922.75
2018-03-01T19:00:56.256Z,99920.00
2018-03-01T19:03:39.119Z,99929.52
2018-03-01T19:06:23.184Z,99936.42
2018-03-01T19:08:55.045Z,99930.23
2018-03-01T19:11:28.340Z,99915.72
2018-03-01T19:13:59.947Z,99926.58
2018-03-01T19:16:31.100Z,99928.05
2018-03-01T19:19:03.233Z,99931.80
2018-03-01T19:21:36.717Z,99925.51
2018-03-01T19:24:08.749Z,99927.82
2018-03-01T19:26:39.800Z,99917.84
2018-03-01T19:29:26.839Z,99910.31
2018-03-01T19:32:01.708Z,99920.98
2018-03-01T19:34:35.330Z,99886.89
2018-03-01T19:37:13.635Z,99912.66
2018-03-01T19:39:49.146Z,99911.66
2018-03-01T19:42:32.281Z,99907.97
2018-03-01T19:45:32.634Z,99911.44
2018-03-01T19:48:14.548Z,99916.57
2018-03-01T19:50:50.660Z,99906.20
2018-03-01T19:56:11.247Z,99898.29
2018-03-01T19:58:49.089Z,99884.53
2018-03-01T20:01:29.760Z,99893.66
2018-03-01T20:04:03.030Z,99880.63
2018-03-01T20:06:34.952Z,99885.64
2018-03-01T20:09:10.215Z,99883.77
2018-03-01T20:11:43.133Z,99874.32
2018-03-01T20:14:17.351Z,99885.52
2018-03-01T20:16:49.434Z,99878.41
2018-03-01T20:19:23.515Z,99875.30
2018-03-01T20:21:54.316Z,99868.97
2018-03-01T20:24:25.982Z,99876.47
2018-03-01T20:26:57.136Z,99876.84
2018-03-01T20:29:28.894Z,99875.25
2018-03-01T20:32:01.714Z,99869.88
2018-03-01T20:34:34.664Z,99872.16
2018-03-01T20:37:06.594Z,99867.08
2018-03-01T20:39:37.921Z,99866.31
2018-03-01T20:42:09.503Z,99866.78
2018-03-01T20:44:41.185Z,99864.36
2018-03-01T20:47:14.238Z,99865.09
2018-03-01T20:49:52.525Z,99866.13
2018-03-01T20:52:25.684Z,99866.13
2018-03-01T20:57:55.735Z,99856.30
2018-03-01T21:00:29.686Z,99858.00
2018-03-01T21:03:01.957Z,99855.27
2018-03-01T21:05:34.051Z,99854.34
2018-03-01T21:08:07.479Z,99849.42
2018-03-01T21:10:38.575Z,99853.53
2018-03-01T21:13:10.731Z,99833.34
2018-03-01T21:15:43.527Z,99850.88
2018-03-01T21:18:15.027Z,99849.32
2018-03-01T21:20:51.508Z,99856.47
2018-03-01T21:23:28.981Z,99851.07
2018-03-01T21:25:59.954Z,99841.01
2018-03-01T21:28:34.904Z,99852.70
2018-03-01T21:31:19.733Z,99854.52
2018-03-01T21:33:56.785Z,99839.23
2018-03-01T21:36:27.916Z,99847.45
2018-03-01T21:38:58.620Z,99840.30
2018-03-01T21:41:29.948Z,99849.66
2018-03-01T21:44:01.684Z,99837.58
2018-03-01T21:46:45.266Z,99843.50
2018-03-01T21:49:16.268Z,99834.50
2018-03-01T21:51:49.325Z,99829.11
2018-03-01T21:54:23.187Z,99820.16
2018-03-01T21:56:55.732Z,99825.87
2018-03-01T21:59:32.306Z,99820.82
2018-03-01T22:02:03.951Z,99815.96
2018-03-01T22:04:35.510Z,99811.28
2018-03-01T22:07:11.258Z,99821.38
2018-03-01T22:09:56.842Z,99821.00
2018-03-01T22:12:28.279Z,99810.97
2018-03-01T22:15:05.031Z,99806.19
2018-03-01T22:20:23.995Z,99811.56
2018-03-01T22:24:10.631Z,99808.19
2018-03-01T22:26:43.035Z,99802.73
2018-03-01T22:29:19.210Z,99805.74
2018-03-01T22:31:53.666Z,99804.80
2018-03-01T22:34:26.205Z,99816.35
2018-03-01T22:37:02.415Z,99815.96
2018-03-01T22:39:41.437Z,99807.12
2018-03-01T22:42:14.803Z,99806.75
2018-03-01T22:44:49.040Z,99803.27
2018-03-01T22:47:30.563Z,99806.30
2018-03-01T22:50:02.454Z,99803.25
2018-03-01T22:52:34.352Z,99808.98
2018-03-01T22:55:08.238Z,99809.78
2018-03-01T22:57:45.004Z,99806.92
2018-03-01T23:00:47.052Z,99798.97
2018-03-01T23:03:51.331Z,99802.05
2018-03-01T23:06:23.241Z,99801.11
2018-03-01T23:08:55.424Z,99796.35
2018-03-01T23:11:28.750Z,99792.58
2018-03-01T23:14:00.294Z,99801.89
2018-03-01T23:16:33.767Z,99798.92
2018-03-01T23:19:06.417Z,99790.23
2018-03-01T23:21:38.367Z,99785.21
2018-03-01T23:24:09.706Z,99787.00
2018-03-01T23:26:40.711Z,99780.22
2018-03-01T23:29:13.188Z,99784.84
2018-03-01T23:31:45.418Z,99784.27
2018-03-01T23:34:17.243Z,99777.27
2018-03-01T23:36:50.451Z,99776.69
2018-03-01T23:39:34.085Z,99768.45
2018-03-01T23:42:07.701Z,99771.69
2018-03-01T23:44:43.029Z,99772.87
2018-03-01T23:47:23.312Z,99762.78
2018-03-01T23:49:59.166Z,99760.38
2018-03-01T23:55:09.633Z,99755.75
2018-03-01T23:57:40.527Z,99745.09
